createdAt,value
2018-08-22T00:00:23.003Z,70.64
2018-08-22T00:01:03.408Z,70.54
2018-08-22T00:01:43.853Z,70.44
2018-08-22T00:02:24.178Z,70.54
2018-08-22T00:03:04.607Z,70.73
2018-08-22T00:03:44.999Z,70.35
2018-08-22T00:04:25.437Z,70.54
2018-08-22T00:05:05.852Z,70.35
2018-08-22T00:05:46.244Z,70.35
2018-08-22T00:06:26.622Z,70.83
2018-08-22T00:07:06.984Z,71.31
2018-08-22T00:07:47.355Z,71.22
2018-08-22T00:08:27.774Z,71.02
2018-08-22T00:09:08.137Z,70.44
2018-08-22T00:09:48.552Z,70.83
2018-08-22T00:10:28.895Z,71.12
2018-08-22T00:11:09.352Z,70.92
2018-08-22T00:11:49.771Z,71.12
2018-08-22T00:12:30.170Z,71.02
2018-08-22T00:13:10.536Z,71.02
2018-08-22T00:13:50.970Z,71.02
2018-08-22T00:14:31.340Z,70.73
2018-08-22T00:15:11.825Z,70.83
2018-08-22T00:15:52.199Z,71.12
2018-08-22T00:16:32.545Z,70.73
2018-08-22T00:17:12.936Z,71.41
2018-08-22T00:17:53.356Z,71.22
2018-08-22T00:18:33.770Z,71.31
2018-08-22T00:19:14.181Z,71.5
2018-08-22T00:19:54.550Z,71.5
2018-08-22T00:20:34.971Z,71.7
2018-08-22T00:21:15.326Z,71.7
2018-08-22T00:21:55.739Z,71.7
2018-08-22T00:22:36.287Z,71.79
2018-08-22T00:23:16.492Z,71.79
2018-08-22T00:23:56.967Z,71.7
2018-08-22T00:24:37.309Z,71.79
2018-08-22T00:25:17.742Z,72.37
2018-08-22T00:25:58.119Z,71.7
2018-08-22T00:26:38.489Z,71.7
2018-08-22T00:27:18.888Z,71.89
2018-08-22T00:27:59.299Z,72.37
2018-08-22T00:28:39.701Z,72.14
2018-08-22T00:29:20.176Z,72.27
2018-08-22T00:30:00.525Z,72.47
2018-08-22T00:30:40.935Z,72.37
2018-08-22T00:31:21.291Z,72.56
2018-08-22T00:32:01.685Z,72.27
2018-08-22T00:32:42.100Z,72.37
2018-08-22T00:33:22.485Z,72.24
2018-08-22T00:34:02.955Z,72.37
2018-08-22T00:34:43.307Z,72.24
2018-08-22T00:35:23.663Z,72.27
2018-08-22T00:36:04.061Z,72.18
2018-08-22T00:36:44.492Z,72.72
2018-08-22T00:37:24.852Z,72.75
2018-08-22T00:38:05.294Z,72.66
2018-08-22T00:38:45.689Z,72.63
2018-08-22T00:39:26.097Z,72.63
2018-08-22T00:40:06.471Z,72.63
2018-08-22T00:40:46.912Z,72.63
2018-08-22T00:41:27.294Z,72.72
2018-08-22T00:42:07.690Z,72.63
2018-08-22T00:42:48.139Z,72.63
2018-08-22T00:43:28.491Z,72.63
2018-08-22T00:44:08.940Z,72.63
2018-08-22T00:44:49.309Z,72.05
2018-08-22T00:45:29.712Z,72.27
2018-08-22T00:46:10.123Z,72.27
2018-08-22T00:46:50.589Z,72.56
2018-08-22T00:47:30.988Z,72.37
2018-08-22T00:48:11.386Z,72.72
2018-08-22T00:48:51.790Z,72.66
2018-08-22T00:49:32.161Z,72.43
2018-08-22T00:50:12.582Z,72.56
2018-08-22T00:50:53.003Z,72.37
2018-08-22T00:51:33.369Z,72.85
2018-08-22T00:52:13.818Z,72.47
2018-08-22T00:52:54.186Z,72.66
2018-08-22T00:53:34.617Z,72.18
2018-08-22T00:54:14.981Z,72.37
2018-08-22T00:54:55.410Z,72.47
2018-08-22T00:55:35.807Z,72.18
2018-08-22T00:56:16.195Z,72.08
2018-08-22T00:56:56.584Z,72.18
2018-08-22T00:57:36.958Z,72.18
2018-08-22T00:58:17.390Z,72.18
2018-08-22T00:58:57.781Z,72.18
2018-08-22T00:59:38.216Z,72.27
2018-08-22T01:00:18.624Z,71.89
2018-08-22T01:00:58.982Z,72.37
2018-08-22T01:01:39.417Z,72.37
2018-08-22T01:02:19.777Z,72.18
2018-08-22T01:03:00.217Z,72.08
2018-08-22T01:03:40.620Z,72.08
2018-08-22T01:04:21.002Z,72.18
2018-08-22T01:05:01.413Z,72.18
2018-08-22T01:05:41.809Z,72.18
2018-08-22T01:06:22.240Z,72.27
2018-08-22T01:07:02.673Z,72.37
2018-08-22T01:07:43.041Z,72.66
2018-08-22T01:08:23.473Z,72.37
2018-08-22T01:09:03.897Z,72.33
2018-08-22T01:09:44.345Z,72.91
2018-08-22T01:10:24.718Z,72.72
2018-08-22T01:11:05.110Z,73.3
2018-08-22T01:11:45.542Z,73.2
2018-08-22T01:12:25.945Z,73.01
2018-08-22T01:13:06.318Z,73.58
2018-08-22T01:13:46.714Z,73.3
2018-08-22T01:14:27.205Z,73.58
2018-08-22T01:15:07.583Z,73.39
2018-08-22T01:15:48.078Z,74.16
2018-08-22T01:16:28.510Z,73.88
2018-08-22T01:17:08.887Z,73.88
2018-08-22T01:17:49.289Z,73.97
2018-08-22T01:18:29.696Z,73.88
2018-08-22T01:19:10.157Z,73.97
2018-08-22T01:19:50.567Z,73.97
2018-08-22T01:20:30.991Z,73.97
2018-08-22T01:21:11.405Z,74.16
2018-08-22T01:21:51.773Z,73.97
2018-08-22T01:22:32.169Z,73.88
2018-08-22T01:23:12.613Z,74.07
2018-08-22T01:23:53.010Z,73.49
2018-08-22T01:24:33.419Z,73.49
2018-08-22T01:25:13.867Z,73.3
2018-08-22T01:25:54.298Z,73.49
2018-08-22T01:26:34.706Z,73.78
2018-08-22T01:27:15.051Z,73.97
2018-08-22T01:27:55.439Z,73.58
2018-08-22T01:28:35.856Z,73.68
2018-08-22T01:29:16.233Z,73.58
2018-08-22T01:29:56.605Z,73.97
2018-08-22T01:30:36.968Z,73.97
2018-08-22T01:31:17.429Z,73.78
2018-08-22T01:31:57.809Z,73.97
2018-08-22T01:32:38.224Z,73.88
2018-08-22T01:33:18.649Z,73.97
2018-08-22T01:33:59.017Z,73.49
2018-08-22T01:34:39.436Z,73.88
2018-08-22T01:35:19.804Z,74.36
2018-08-22T01:36:00.191Z,73.78
2018-08-22T01:36:40.653Z,73.97
2018-08-22T01:37:21.059Z,73.97
2018-08-22T01:38:01.448Z,73.94
2018-08-22T01:38:41.794Z,74.22
2018-08-22T01:39:22.192Z,74.07
2018-08-22T01:40:02.650Z,74.07
2018-08-22T01:40:43.069Z,74.36
2018-08-22T01:41:23.503Z,74.26
2018-08-22T01:42:03.878Z,74.32
2018-08-22T01:42:44.284Z,74.22
2018-08-22T01:43:24.687Z,74.45
2018-08-22T01:44:05.099Z,74.26
2018-08-22T01:44:45.523Z,74.45
2018-08-22T01:45:25.879Z,74.26
2018-08-22T01:46:06.342Z,74.16
2018-08-22T01:46:46.766Z,74.16
2018-08-22T01:47:27.227Z,73.78
2018-08-22T01:48:07.613Z,73.97
2018-08-22T01:48:48.017Z,74.16
2018-08-22T01:50:40.795Z,74.41
2018-08-22T01:51:22.883Z,74.13
2018-08-22T01:52:03.301Z,74.61
2018-08-22T01:52:43.688Z,74.32
2018-08-22T01:53:24.127Z,74.32
2018-08-22T01:54:04.481Z,74.41
2018-08-22T01:54:44.901Z,74.71
2018-08-22T01:55:25.294Z,74.22
2018-08-22T01:56:05.737Z,74.13
2018-08-22T01:56:46.114Z,74.71
2018-08-22T01:57:26.531Z,74.9
2018-08-22T01:58:06.899Z,74.99
2018-08-22T01:58:47.356Z,74.99
2018-08-22T01:59:27.767Z,75.19
2018-08-22T02:00:08.153Z,74.9
2018-08-22T02:00:48.560Z,74.99
2018-08-22T02:01:28.982Z,74.9
2018-08-22T02:02:09.330Z,75.19
2018-08-22T02:02:49.734Z,74.99
2018-08-22T02:03:30.149Z,74.8
2018-08-22T02:04:10.526Z,74.9
2018-08-22T02:04:50.967Z,75.28
2018-08-22T02:05:31.361Z,74.9
2018-08-22T02:06:11.773Z,74.9
2018-08-22T02:06:52.194Z,75.57
2018-08-22T02:07:32.611Z,75.19
2018-08-22T02:08:12.943Z,75.38
2018-08-22T02:08:53.404Z,75.28
2018-08-22T02:09:33.801Z,75.57
2018-08-22T02:10:14.156Z,75.86
2018-08-22T02:10:54.544Z,76.06
2018-08-22T02:11:34.995Z,75.67
2018-08-22T02:12:15.374Z,75.67
2018-08-22T02:12:55.779Z,75.57
2018-08-22T02:13:36.145Z,75.57
2018-08-22T02:14:16.538Z,75.57
2018-08-22T02:14:56.914Z,75.28
2018-08-22T02:15:37.373Z,75.57
2018-08-22T02:16:17.752Z,75.96
2018-08-22T02:16:58.149Z,75.96
2018-08-22T02:17:38.564Z,76.25
2018-08-22T02:18:18.920Z,75.96
2018-08-22T02:18:59.290Z,76.01
2018-08-22T02:19:39.728Z,76.01
2018-08-22T02:20:20.157Z,75.82
2018-08-22T02:21:00.515Z,75.96
2018-08-22T02:21:40.964Z,75.73
2018-08-22T02:22:21.364Z,75.82
2018-08-22T02:23:01.781Z,75.96
2018-08-22T02:23:42.107Z,75.96
2018-08-22T02:24:22.514Z,75.86
2018-08-22T02:25:02.949Z,75.76
2018-08-22T02:25:43.358Z,75.48
2018-08-22T02:26:23.730Z,75.76
2018-08-22T02:27:04.091Z,75.86
2018-08-22T02:27:44.509Z,75.57
2018-08-22T02:28:24.881Z,75.86
2018-08-22T02:29:05.351Z,75.86
2018-08-22T02:29:45.651Z,75.76
2018-08-22T02:30:26.108Z,75.76
2018-08-22T02:31:06.513Z,75.57
2018-08-22T02:31:46.957Z,75.67
2018-08-22T02:32:27.314Z,75.86
2018-08-22T02:33:07.738Z,75.86
2018-08-22T02:33:48.109Z,75.86
2018-08-22T02:34:28.508Z,75.67
2018-08-22T02:35:08.920Z,75.38
2018-08-22T02:35:49.279Z,75.48
2018-08-22T02:36:29.677Z,75.19
2018-08-22T02:37:10.037Z,75.28
2018-08-22T02:37:50.469Z,75.28
2018-08-22T02:38:30.833Z,75.57
2018-08-22T02:39:11.255Z,75.76
2018-08-22T02:39:51.680Z,75.67
2018-08-22T02:40:32.075Z,75.96
2018-08-22T02:41:12.412Z,75.57
2018-08-22T02:41:52.886Z,75.57
2018-08-22T02:42:33.236Z,75.48
2018-08-22T02:43:13.673Z,75.67
2018-08-22T02:43:54.067Z,76.01
2018-08-22T02:44:34.513Z,76.01
2018-08-22T02:45:14.849Z,75.92
2018-08-22T02:45:55.303Z,75.96
2018-08-22T02:46:35.609Z,76.01
2018-08-22T02:47:16.100Z,76.21
2018-08-22T02:47:56.446Z,76.21
2018-08-22T02:48:36.948Z,76.5
2018-08-22T02:49:17.285Z,76.31
2018-08-22T02:49:57.755Z,76.98
2018-08-22T02:50:38.127Z,76.69
2018-08-22T02:51:18.564Z,77.08
2018-08-22T02:51:58.998Z,76.78
2018-08-22T02:52:39.404Z,77.08
2018-08-22T02:53:19.825Z,76.98
2018-08-22T02:54:00.221Z,76.98
2018-08-22T02:54:40.614Z,77.46
2018-08-22T02:55:21.048Z,77.26
2018-08-22T02:56:01.382Z,77.46
2018-08-22T02:56:41.839Z,77.9
2018-08-22T02:57:22.305Z,77.51
2018-08-22T02:58:02.676Z,77.9
2018-08-22T02:58:43.040Z,78.09
2018-08-22T02:59:23.449Z,78.28
2018-08-22T03:00:03.849Z,78.09
2018-08-22T03:00:44.311Z,78.38
2018-08-22T03:01:24.669Z,78.38
2018-08-22T03:02:05.182Z,78.28
2018-08-22T03:02:45.536Z,78.86
2018-08-22T03:03:25.943Z,78.86
2018-08-22T03:04:06.332Z,78.77
2018-08-22T03:04:46.757Z,78.67
2018-08-22T03:05:27.118Z,78.67
2018-08-22T03:06:07.505Z,78.58
2018-08-22T03:06:47.890Z,78.77
2018-08-22T03:07:28.340Z,78.77
2018-08-22T03:08:08.737Z,78.67
2018-08-22T03:08:49.069Z,79.05
2018-08-22T03:09:29.523Z,78.86
2018-08-22T03:10:09.908Z,78.86
2018-08-22T03:10:50.357Z,78.67
2018-08-22T03:11:30.723Z,78.96
2018-08-22T03:12:11.211Z,78.67
2018-08-22T03:12:51.556Z,78.67
2018-08-22T03:13:31.946Z,78.58
2018-08-22T03:14:12.407Z,78.77
2018-08-22T03:14:52.812Z,78.77
2018-08-22T03:15:33.165Z,78.86
2018-08-22T03:16:13.613Z,79.15
2018-08-22T03:16:54.034Z,78.86
2018-08-22T03:17:34.398Z,78.77
2018-08-22T03:18:14.893Z,78.77
2018-08-22T03:18:55.289Z,78.86
2018-08-22T03:19:35.686Z,78.77
2018-08-22T03:20:16.136Z,78.58
2018-08-22T03:20:56.549Z,78.58
2018-08-22T03:21:36.891Z,78.77
2018-08-22T03:22:17.362Z,79.15
2018-08-22T03:22:57.773Z,78.86
2018-08-22T03:23:38.229Z,78.96
2018-08-22T03:24:18.599Z,79.53
2018-08-22T03:24:58.949Z,79.05
2018-08-22T03:25:39.380Z,78.67
2018-08-22T03:26:19.812Z,78.77
2018-08-22T03:27:00.200Z,78.58
2018-08-22T03:27:40.562Z,78.48
2018-08-22T03:28:20.996Z,78.67
2018-08-22T03:29:01.502Z,78.77
2018-08-22T03:29:41.823Z,78.86
2018-08-22T03:30:22.302Z,78.48
2018-08-22T03:31:02.653Z,78.28
2018-08-22T03:31:43.008Z,78.86
2018-08-22T03:32:23.506Z,78.96
2018-08-22T03:33:03.911Z,78.86
2018-08-22T03:33:44.249Z,78.86
2018-08-22T03:34:24.673Z,78.48
2018-08-22T03:35:05.116Z,78.38
2018-08-22T03:35:45.451Z,78.96
2018-08-22T03:36:25.898Z,78.38
2018-08-22T03:37:06.304Z,78.86
2018-08-22T03:37:46.692Z,78.77
2018-08-22T03:38:27.090Z,78.48
2018-08-22T03:39:07.528Z,78.77
2018-08-22T03:39:47.935Z,78.48
2018-08-22T03:40:28.393Z,78.28
2018-08-22T03:41:08.815Z,78.77
2018-08-22T03:41:49.221Z,78.96
2018-08-22T03:42:29.645Z,78.28
2018-08-22T03:43:10.084Z,78.28
2018-08-22T03:43:50.484Z,78.28
2018-08-22T03:44:30.872Z,78.86
2018-08-22T03:45:11.271Z,78.86
2018-08-22T03:45:51.721Z,78.77
2018-08-22T03:46:32.194Z,78.77
2018-08-22T03:47:12.563Z,78.86
2018-08-22T03:47:52.989Z,79.25
2018-08-22T03:48:33.502Z,79.35
2018-08-22T03:49:13.876Z,79.53
2018-08-22T03:49:54.398Z,79.25
2018-08-22T03:50:34.723Z,78.77
2018-08-22T03:51:15.168Z,79.05
2018-08-22T03:51:55.544Z,78.86
2018-08-22T03:52:36.042Z,79.35
2018-08-22T03:53:16.684Z,79.35
2018-08-22T03:53:57.094Z,78.96
2018-08-22T03:54:37.446Z,78.86
2018-08-22T03:55:17.927Z,79.25
2018-08-22T03:55:58.370Z,79.05
2018-08-22T03:56:38.786Z,79.63
2018-08-22T03:57:19.115Z,79.35
2018-08-22T03:57:59.599Z,79.05
2018-08-22T03:58:39.994Z,79.44
2018-08-22T03:59:20.408Z,80.02
2018-08-22T04:00:00.814Z,79.25
2018-08-22T04:00:41.212Z,79.35
2018-08-22T04:01:21.674Z,79.35
2018-08-22T04:02:02.105Z,79.63
2018-08-22T04:02:42.460Z,79.92
2018-08-22T04:03:22.942Z,79.92
2018-08-22T04:04:03.510Z,79.92
2018-08-22T04:04:43.918Z,79.63
2018-08-22T04:05:24.317Z,79.15
2018-08-22T04:06:04.729Z,78.96
2018-08-22T04:06:45.143Z,79.02
2018-08-22T04:07:25.497Z,79.3
2018-08-22T04:08:05.890Z,79.98
2018-08-22T04:08:46.350Z,79.98
2018-08-22T04:09:26.920Z,80.27
2018-08-22T04:10:07.235Z,80.94
2018-08-22T04:10:47.618Z,80.94
2018-08-22T04:11:28.045Z,80.65
2018-08-22T04:12:08.495Z,80.27
2018-08-22T04:12:48.844Z,80.36
2018-08-22T04:13:29.288Z,80.46
2018-08-22T04:14:09.740Z,80.27
2018-08-22T04:14:50.216Z,80.65
2018-08-22T04:16:40.561Z,81.32
2018-08-22T04:17:21.294Z,81.23
2018-08-22T04:18:01.653Z,80.84
2018-08-22T04:18:42.108Z,80.84
2018-08-22T04:19:22.523Z,81.04
2018-08-22T04:20:02.959Z,80.84
2018-08-22T04:20:43.419Z,81.04
2018-08-22T04:21:23.801Z,81.04
2018-08-22T04:22:04.224Z,80.17
2018-08-22T04:22:44.623Z,80.07
2018-08-22T04:23:25.111Z,80.84
2018-08-22T04:24:05.484Z,81.13
2018-08-22T04:24:45.961Z,80.75
2018-08-22T04:25:26.311Z,80.75
2018-08-22T04:26:06.777Z,80.94
2018-08-22T04:26:47.161Z,80.84
2018-08-22T04:27:27.535Z,80.75
2018-08-22T05:07:32.236Z,79.25
2018-08-22T05:08:29.022Z,79.44
2018-08-22T05:09:12.158Z,78.67
2018-08-22T05:09:53.260Z,78.28
2018-08-22T05:10:34.998Z,78.42
2018-08-22T05:11:15.321Z,77.56
2018-08-22T05:11:55.770Z,77.26
2018-08-22T05:12:42.035Z,77.17
2018-08-22T05:13:24.109Z,76.69
2018-08-22T05:14:05.243Z,76.5
2018-08-22T05:14:46.469Z,76.21
2018-08-22T05:15:26.745Z,75.48
2018-08-22T05:16:07.337Z,75.28
2018-08-22T05:16:50.873Z,75.09
2018-08-22T05:17:32.150Z,74.9
2018-08-22T05:20:12.213Z,73.49
2018-08-22T05:24:22.901Z,70.86
2018-08-22T05:25:03.127Z,70.28
2018-08-22T05:25:43.549Z,69.61
2018-08-22T05:26:23.962Z,69.26
2018-08-22T05:27:06.737Z,68.97
2018-08-22T05:27:47.609Z,68.97
2018-08-22T05:28:27.979Z,68.1
2018-08-22T05:29:08.518Z,68.19
2018-08-22T05:29:48.851Z,68.39
2018-08-22T05:30:29.300Z,68.19
2018-08-22T05:31:09.699Z,68.74
2018-08-22T05:31:50.252Z,68.87
2018-08-22T05:32:30.578Z,68.19
2018-08-22T05:33:11.044Z,67.46
2018-08-22T05:33:51.463Z,66.69
2018-08-22T05:34:31.917Z,66.3
2018-08-22T05:35:12.323Z,66.11
2018-08-22T05:35:52.693Z,65.91
2018-08-22T05:36:33.608Z,65.91
2018-08-22T05:37:15.845Z,65.47
2018-08-22T05:37:56.251Z,64.89
2018-08-22T05:38:36.669Z,64.4
2018-08-22T05:40:31.602Z,63.02
2018-08-22T05:41:13.233Z,61.95
2018-08-22T05:41:53.744Z,61.57
2018-08-22T05:42:34.114Z,60.89
2018-08-22T05:43:14.604Z,61.21
2018-08-22T05:43:55.120Z,60.63
2018-08-22T05:44:35.793Z,60.24
2018-08-22T05:45:16.023Z,59.79
2018-08-22T05:45:57.249Z,59.01
2018-08-22T05:46:38.017Z,59.01
2018-08-22T05:47:18.951Z,58.56
2018-08-22T05:47:59.193Z,58.65
2018-08-22T05:48:39.632Z,57.69
2018-08-22T05:49:20.019Z,57.3
2018-08-22T05:50:00.394Z,57.01
2018-08-22T05:50:40.766Z,57.04
2018-08-22T05:51:21.169Z,56.94
2018-08-22T05:52:02.279Z,56.46
2018-08-22T05:52:42.106Z,55.68
2018-08-22T05:53:22.974Z,55.32
2018-08-22T05:54:03.445Z,55.13
2018-08-22T05:54:44.480Z,55.04
2018-08-22T05:55:25.104Z,55.26
2018-08-22T05:56:05.811Z,54.45
2018-08-22T05:56:46.337Z,54.38
2018-08-22T05:57:26.703Z,53.89
2018-08-22T05:58:07.090Z,54.09
2018-08-22T05:58:47.620Z,53.53
2018-08-22T05:59:28.116Z,53.15
2018-08-22T06:00:08.540Z,53.05
2018-08-22T06:00:48.978Z,52.76
2018-08-22T06:01:29.460Z,53.05
2018-08-22T06:02:09.899Z,53.05
2018-08-22T06:02:50.629Z,52.3
2018-08-22T06:03:31.816Z,52.59
2018-08-22T06:04:11.720Z,51.81
2018-08-22T06:04:52.168Z,51.91
2018-08-22T06:05:32.757Z,51.81
2018-08-22T06:06:13.517Z,51.04
2018-08-22T06:06:54.159Z,51.16
2018-08-22T06:07:34.748Z,50.87
2018-08-22T06:08:15.180Z,51.06
2018-08-22T06:08:55.658Z,50.31
2018-08-22T06:09:36.219Z,50.51
2018-08-22T06:10:16.710Z,50.41
2018-08-22T06:10:57.386Z,50.7
2018-08-22T06:11:37.655Z,50.41
2018-08-22T06:12:18.309Z,50.31
2018-08-22T06:12:58.967Z,50.21
2018-08-22T06:13:39.977Z,49.82
2018-08-22T06:14:20.670Z,49.46
2018-08-22T06:15:02.419Z,48.88
2018-08-22T06:15:45.161Z,48.88
2018-08-22T06:16:26.031Z,48.8
2018-08-22T06:17:07.115Z,48.51
2018-08-22T06:17:49.307Z,48.03
2018-08-22T06:18:30.329Z,48.13
2018-08-22T06:19:10.888Z,47.47
2018-08-22T06:19:51.380Z,47.56
2018-08-22T06:20:31.912Z,47.56
2018-08-22T06:21:12.953Z,47.08
2018-08-22T06:21:58.310Z,46.91
2018-08-22T06:22:38.442Z,46.81
2018-08-22T06:23:19.614Z,46.51
2018-08-22T06:23:59.919Z,46.25
2018-08-22T06:24:40.569Z,46.34
2018-08-22T06:25:21.301Z,45.67
2018-08-22T06:26:01.735Z,45.78
2018-08-22T06:26:43.503Z,44.9
2018-08-22T06:27:23.273Z,44.9
2018-08-22T06:28:03.969Z,44.54
2018-08-22T06:28:44.436Z,44.15
2018-08-22T06:29:24.876Z,44.24
2018-08-22T06:30:05.306Z,44.15
2018-08-22T06:30:45.711Z,43.95
2018-08-22T06:31:26.266Z,43.95
2018-08-22T06:32:06.798Z,44.07
2018-08-22T06:32:47.684Z,43.88
2018-08-22T06:33:28.292Z,43.88
2018-08-22T06:34:09.063Z,43.88
2018-08-22T06:34:50.828Z,44.17
2018-08-22T06:35:30.693Z,43.59
2018-08-22T06:36:13.202Z,43.39
2018-08-22T06:36:54.334Z,43.32
2018-08-22T06:37:34.378Z,42.44
2018-08-22T06:38:14.804Z,42.34
2018-08-22T06:38:55.584Z,42.26
2018-08-22T06:39:36.024Z,41.77
2018-08-22T06:40:16.667Z,42.16
2018-08-22T06:40:57.150Z,41.77
2018-08-22T06:41:37.571Z,41.97
2018-08-22T06:42:18.046Z,41.7
2018-08-22T06:42:58.469Z,41.5
2018-08-22T06:43:38.902Z,41.31
2018-08-22T06:44:19.461Z,41.02
2018-08-22T06:44:59.888Z,40.72
2018-08-22T06:47:20.310Z,40.94
2018-08-22T06:48:11.348Z,40.72
2018-08-22T06:48:58.797Z,40.63
2018-08-22T06:49:39.758Z,40.92
2018-08-22T06:50:20.296Z,41.02
2018-08-22T06:51:00.816Z,41.11
2018-08-22T06:51:41.350Z,41.21
2018-08-22T06:52:21.714Z,40.82
2018-08-22T06:53:02.129Z,41.02
2018-08-22T06:53:42.504Z,40.82
2018-08-22T06:54:23.011Z,41.21
2018-08-22T06:55:03.417Z,41.11
2018-08-22T06:55:43.851Z,40.72
2018-08-22T06:56:24.221Z,40.92
2018-08-22T06:57:04.676Z,40.72
2018-08-22T06:57:45.064Z,41.11
2018-08-22T06:58:25.513Z,41.02
2018-08-22T06:59:05.856Z,41.21
2018-08-22T06:59:46.339Z,40.92
2018-08-22T07:00:26.785Z,41.21
2018-08-22T07:01:07.158Z,40.82
2018-08-22T07:01:47.580Z,41.11
2018-08-22T07:02:28.085Z,41.11
2018-08-22T07:03:08.682Z,41.02
2018-08-22T07:03:48.890Z,41.31
2018-08-22T07:04:29.316Z,41.02
2018-08-22T07:05:10.857Z,41.7
2018-08-22T07:05:51.541Z,41.7
2018-08-22T07:06:31.985Z,41.8
2018-08-22T07:07:12.779Z,41.8
2018-08-22T07:07:53.108Z,41.6
2018-08-22T07:08:33.508Z,41.7
2018-08-22T07:09:13.873Z,41.7
2018-08-22T07:09:54.239Z,41.89
2018-08-22T07:10:34.770Z,41.41
2018-08-22T07:11:15.153Z,41.6
2018-08-22T07:11:55.598Z,41.13
2018-08-22T07:12:35.957Z,41.72
2018-08-22T07:13:16.600Z,41.21
2018-08-22T07:13:57.295Z,41.7
2018-08-22T07:14:37.579Z,41.99
2018-08-22T07:15:18.124Z,41.89
2018-08-22T07:15:58.799Z,41.8
2018-08-22T07:16:39.132Z,41.89
2018-08-22T07:21:46.692Z,40.47
2018-08-22T07:22:27.139Z,40.56
2018-08-22T07:23:08.331Z,40.86
2018-08-22T07:23:48.806Z,40.56
2018-08-22T07:24:29.006Z,40.86
2018-08-22T07:25:10.472Z,40.86
2018-08-22T07:27:14.121Z,40.76
2018-08-22T07:28:09.655Z,40.95
2018-08-22T07:29:02.272Z,40.86
2018-08-22T07:31:05.052Z,40.76
2018-08-22T07:31:46.408Z,40.66
2018-08-22T07:32:27.130Z,41.15
2018-08-22T07:33:07.611Z,41.62
2018-08-22T07:33:48.319Z,42.01
2018-08-22T07:34:28.752Z,41.72
2018-08-22T07:35:09.624Z,42.01
2018-08-22T07:35:50.394Z,41.91
2018-08-22T07:36:30.758Z,41.62
2018-08-22T07:37:11.486Z,42.01
2018-08-22T07:37:51.895Z,42.01
2018-08-22T07:38:33.137Z,42.01
2018-08-22T07:39:13.456Z,41.54
2018-08-22T07:39:53.951Z,41.83
2018-08-22T07:40:34.616Z,41.05
2018-08-22T07:41:15.073Z,40.95
2018-08-22T07:41:55.456Z,40.78
2018-08-22T07:42:36.085Z,40.29
2018-08-22T07:43:16.841Z,40.68
2018-08-22T07:43:57.295Z,40.97
2018-08-22T07:44:38.635Z,40.29
2018-08-22T07:45:19.131Z,40.21
2018-08-22T07:45:58.943Z,40.31
2018-08-22T07:46:39.377Z,40.01
2018-08-22T07:47:20.033Z,39.82
2018-08-22T07:48:00.452Z,39.74
2018-08-22T07:48:41.638Z,39.15
2018-08-22T07:49:21.578Z,39.35
2018-08-22T07:50:02.363Z,39.15
2018-08-22T07:50:43.019Z,39.45
2018-08-22T07:51:23.893Z,39.15
2018-08-22T07:52:04.677Z,39.35
2018-08-22T07:52:46.141Z,38.78
2018-08-22T07:53:28.304Z,38.49
2018-08-22T07:54:09.908Z,38.68
2018-08-22T07:54:51.027Z,38.1
2018-08-22T07:55:31.636Z,37.73
2018-08-22T07:56:11.777Z,37.92
2018-08-22T07:56:53.312Z,37.65
2018-08-22T07:57:32.980Z,37.35
2018-08-22T07:58:13.439Z,37.54
2018-08-22T07:58:53.938Z,37.54
2018-08-22T07:59:34.455Z,36.68
2018-08-22T08:00:15.145Z,36.68
2018-08-22T08:00:55.552Z,36.39
2018-08-22T08:01:36.074Z,35.82
2018-08-22T08:02:17.403Z,35.82
2018-08-22T08:03:00.699Z,36.03
2018-08-22T08:03:41.700Z,35.62
2018-08-22T08:04:22.397Z,35.64
2018-08-22T08:05:04.322Z,35.83
2018-08-22T08:05:44.195Z,35.05
2018-08-22T08:06:24.801Z,35.36
2018-08-22T08:07:06.344Z,35.64
2018-08-22T08:07:47.299Z,35.55
2018-08-22T08:08:27.594Z,35.34
2018-08-22T08:09:08.898Z,34.75
2018-08-22T08:09:48.542Z,34.97
2018-08-22T08:10:29.635Z,34.97
2018-08-22T08:11:10.890Z,34.67
2018-08-22T08:11:51.652Z,34.77
2018-08-22T08:12:31.931Z,34.47
2018-08-22T08:13:12.437Z,34.69
2018-08-22T08:13:53.116Z,34.39
2018-08-22T08:14:34.701Z,34.39
2018-08-22T08:15:16.253Z,34.39
2018-08-22T08:15:56.642Z,33.7
2018-08-22T08:16:36.772Z,33.43
2018-08-22T08:17:18.652Z,33.03
2018-08-22T08:17:59.145Z,33.43
2018-08-22T08:18:40.656Z,33.23
2018-08-22T08:19:20.851Z,33.03
2018-08-22T08:20:01.102Z,33.53
2018-08-22T08:20:41.769Z,33.13
2018-08-22T08:21:22.359Z,32.74
2018-08-22T08:22:03.125Z,32.84
2018-08-22T08:22:43.766Z,33.13
2018-08-22T08:23:24.316Z,32.74
2018-08-22T08:24:05.643Z,32.54
2018-08-22T08:24:45.394Z,32.64
2018-08-22T08:25:25.892Z,32.84
2018-08-22T08:26:06.475Z,32.74
2018-08-22T08:26:47.402Z,32.74
2018-08-22T08:27:27.550Z,32.34
2018-08-22T08:28:08.017Z,32.45
2018-08-22T08:28:48.498Z,32.24
2018-08-22T08:29:29.034Z,32.54
2018-08-22T08:30:10.153Z,32.64
2018-08-22T08:30:50.312Z,32.84
2018-08-22T08:31:32.690Z,33.02
2018-08-22T08:32:13.140Z,33.7
2018-08-22T08:32:53.953Z,33.98
2018-08-22T08:33:34.443Z,33.89
2018-08-22T08:34:15.662Z,33.8
2018-08-22T08:34:56.084Z,33.51
2018-08-22T08:35:36.600Z,33.22
2018-08-22T08:36:18.316Z,32.84
2018-08-22T08:36:58.862Z,32.62
2018-08-22T08:37:40.673Z,32.43
2018-08-22T08:38:21.192Z,32.24
2018-08-22T08:39:01.664Z,32.34
2018-08-22T08:39:42.342Z,32.54
2018-08-22T08:40:23.892Z,32.64
2018-08-22T08:41:08.225Z,32.45
2018-08-22T08:41:48.539Z,32.34
2018-08-22T08:42:28.942Z,32.74
2018-08-22T08:43:09.584Z,32.54
2018-08-22T08:43:50.417Z,32.64
2018-08-22T08:44:31.184Z,32.15
2018-08-22T08:45:13.758Z,32.23
2018-08-22T08:45:56.797Z,32.34
2018-08-22T08:46:35.594Z,32.45
2018-08-22T08:47:17.255Z,32.64
2018-08-22T08:47:57.663Z,32.17
2018-08-22T08:48:38.016Z,31.97
2018-08-22T08:49:20.242Z,32.07
2018-08-22T08:50:00.759Z,32.17
2018-08-22T08:50:41.936Z,31.88
2018-08-22T08:51:22.815Z,31.79
2018-08-22T08:52:09.674Z,31.39
2018-08-22T08:52:50.203Z,31.31
2018-08-22T08:53:31.208Z,31.11
2018-08-22T08:54:12.205Z,31.11
2018-08-22T08:54:52.325Z,31.01
2018-08-22T08:55:33.722Z,31.01
2018-08-22T08:56:14.714Z,30.72
2018-08-22T08:56:57.214Z,30.93
2018-08-22T08:57:38.260Z,30.82
2018-08-22T08:58:21.237Z,30.44
2018-08-22T08:59:03.211Z,30.44
2018-08-22T08:59:43.738Z,30.44
2018-08-22T09:00:26.433Z,30.15
2018-08-22T09:01:07.230Z,30.34
2018-08-22T09:01:47.857Z,30.45
2018-08-22T09:02:28.981Z,30.45
2018-08-22T09:03:10.216Z,30.06
2018-08-22T09:03:50.323Z,30.35
2018-08-22T09:04:32.042Z,30.75
2018-08-22T09:05:13.782Z,30.35
2018-08-22T09:05:54.730Z,30.35
2018-08-22T09:06:36.275Z,30.07
2018-08-22T09:07:17.719Z,29.86
2018-08-22T09:07:59.242Z,29.96
2018-08-22T09:08:39.226Z,29.76
2018-08-22T09:09:21.215Z,29.86
2018-08-22T09:10:01.191Z,29.68
2018-08-22T09:10:41.484Z,29.48
2018-08-22T09:11:23.717Z,29.5
2018-08-22T09:12:04.262Z,28.99
2018-08-22T09:12:45.694Z,29.5
2018-08-22T09:13:27.216Z,28.7
2018-08-22T09:14:08.365Z,28.62
2018-08-22T09:14:50.222Z,28.92
2018-08-22T09:15:32.717Z,28.92
2018-08-22T09:16:13.689Z,28.92
2018-08-22T09:16:55.185Z,28.24
2018-08-22T09:17:35.888Z,28.34
2018-08-22T09:18:17.717Z,28.74
2018-08-22T09:18:58.355Z,28.33
2018-08-22T09:19:39.409Z,28.34
2018-08-22T09:20:55.649Z,27.55
2018-08-22T09:21:37.452Z,28.14
2018-08-22T09:22:17.350Z,27.96
2018-08-22T09:22:58.693Z,27.76
2018-08-22T09:23:39.740Z,27.96
2018-08-22T09:24:20.268Z,27.48
2018-08-22T09:25:01.409Z,27.67
2018-08-22T09:25:45.050Z,27.48
2018-08-22T09:26:23.812Z,26.97
2018-08-22T09:27:04.309Z,27.07
2018-08-22T09:27:45.731Z,27.47
2018-08-22T09:28:26.629Z,27.36
2018-08-22T09:29:07.033Z,27.38
2018-08-22T09:29:48.555Z,27.18
2018-08-22T09:30:29.417Z,27.08
2018-08-22T09:34:09.743Z,27.08
2018-08-22T09:34:50.520Z,26.78
2018-08-22T09:35:31.298Z,26.89
2018-08-22T09:36:11.761Z,26.98
2018-08-22T09:36:52.966Z,27.58
2018-08-22T09:37:33.462Z,26.89
2018-08-22T09:38:16.208Z,26.78
2018-08-22T09:38:58.193Z,27.09
2018-08-22T09:39:39.705Z,26.6
2018-08-22T09:40:20.967Z,26.7
2018-08-22T09:41:02.609Z,26.9
2018-08-22T09:41:43.977Z,27.19
2018-08-22T09:42:25.603Z,26.6
2018-08-22T09:43:06.555Z,26.1
2018-08-22T09:43:47.011Z,26.32
2018-08-22T09:44:27.472Z,26.51
2018-08-22T09:45:08.034Z,26.32
2018-08-22T09:45:49.369Z,26.21
2018-08-22T09:48:08.568Z,25.43